Terminal Aerodrome Forecast
Issued by NWS

Home | Current Version | Previous Version | Text Only | Print | Product List | Glossary On
Versions: 1 2 3 4 5 6 7 8 9 10 11 12 13 14 15 16 17 18 19 20 21 22 23 24 25 26
000
FTUS41 KBGM 262300
TAFRME
TAF
KRME 262330Z 2700/2724 09008KT P6SM -SHSN OVC040
     FM270900 36006KT P6SM OVC040
     FM271400 32010G20KT P6SM -SHSN OVC035
      TEMPO 2715/2719 2SM -SN OVC025=

USA.gov is the U.S. government's official web portal to all federal, state and local government web resources and services.